createdAt,value
2019-01-15T00:00:00.233Z,-1.27
2019-01-15T00:00:59.940Z,-1.28
2019-01-15T00:02:00.172Z,-1.22
2019-01-15T00:03:00.145Z,-1.28
2019-01-15T00:04:00.126Z,-1.31
2019-01-15T00:05:00.167Z,-1.3
2019-01-15T00:05:59.837Z,-1.28
2019-01-15T00:07:00.065Z,-1.27
2019-01-15T00:07:59.793Z,-1.25
2019-01-15T00:09:00.023Z,-1.27
2019-01-15T00:10:00.015Z,-1.27
2019-01-15T00:10:59.983Z,-1.28
2019-01-15T00:11:59.722Z,-1.27
2019-01-15T00:12:59.947Z,-1.22
2019-01-15T00:13:59.919Z,-1.19
2019-01-15T00:14:59.904Z,-1.19
2019-01-15T00:15:59.886Z,-1.25
2019-01-15T00:16:59.615Z,-1.27
2019-01-15T00:17:59.845Z,-1.27
2019-01-15T00:18:59.573Z,-1.28
2019-01-15T00:19:59.801Z,-1.24
2019-01-15T00:20:59.786Z,-1.28
2019-01-15T00:21:59.511Z,-1.25
2019-01-15T00:22:59.742Z,-1.27
2019-01-15T00:23:59.472Z,-1.27
2019-01-15T00:24:59.701Z,-1.21
2019-01-15T00:25:59.681Z,-1.24
2019-01-15T00:26:59.811Z,-1.17
2019-01-15T00:27:59.641Z,-1.22
2019-01-15T00:28:59.622Z,-1.27
2019-01-15T00:29:59.600Z,-1.19
2019-01-15T00:30:59.580Z,-1.24
2019-01-15T00:31:59.608Z,-1.14
2019-01-15T00:32:59.541Z,-1.19
2019-01-15T00:33:59.522Z,-1.3
2019-01-15T00:34:59.252Z,-1.22
2019-01-15T00:35:59.495Z,-1.21
2019-01-15T00:36:59.462Z,-1.22
2019-01-15T00:37:59.445Z,-1.25
2019-01-15T00:38:59.177Z,-1.25
2019-01-15T00:39:59.407Z,-1.16
2019-01-15T00:40:59.137Z,-1.24
2019-01-15T00:41:59.121Z,-1.16
2019-01-15T00:42:59.342Z,-1.22
2019-01-15T00:43:59.320Z,-1.14
2019-01-15T00:44:59.303Z,-1.1
2019-01-15T00:45:59.285Z,-1.09
2019-01-15T00:46:59.294Z,-1.13
2019-01-15T00:47:59.267Z,-1.07
2019-01-15T00:48:59.246Z,-1.07
2019-01-15T00:49:59.228Z,-1.09
2019-01-15T00:50:58.962Z,-1.13
2019-01-15T00:51:59.186Z,-1.1
2019-01-15T00:52:59.193Z,-1.07
2019-01-15T00:53:59.175Z,-1.11
2019-01-15T00:54:59.150Z,-1.14
2019-01-15T00:55:59.138Z,-1.1
2019-01-15T00:56:59.119Z,-1.11
2019-01-15T00:57:59.101Z,-1.07
2019-01-15T00:58:59.073Z,-1.06
2019-01-15T00:59:59.057Z,-1.13
2019-01-15T01:00:59.040Z,-1.16
2019-01-15T01:01:58.770Z,-1.01
2019-01-15T01:02:58.996Z,-0.99
2019-01-15T01:03:58.978Z,-1.01
2019-01-15T01:04:58.959Z,-0.96
2019-01-15T01:05:58.935Z,-0.93
2019-01-15T01:06:58.910Z,-0.99
2019-01-15T01:07:58.896Z,-0.95
2019-01-15T01:08:58.874Z,-1.01
2019-01-15T01:09:58.607Z,-0.93
2019-01-15T01:10:58.835Z,-0.96
2019-01-15T01:11:58.812Z,-0.95
2019-01-15T01:12:58.804Z,-1.01
2019-01-15T01:13:58.530Z,-0.96
2019-01-15T01:14:58.759Z,-0.98
2019-01-15T01:15:58.738Z,-0.92
2019-01-15T01:16:58.469Z,-0.96
2019-01-15T01:17:58.700Z,-0.96
2019-01-15T01:18:58.678Z,-0.95
2019-01-15T01:19:58.658Z,-0.92
2019-01-15T01:20:58.391Z,-0.92
2019-01-15T01:21:58.661Z,-0.85
2019-01-15T01:22:58.603Z,-0.85
2019-01-15T01:23:58.576Z,-0.92
2019-01-15T01:24:58.557Z,-0.85
2019-01-15T01:25:58.532Z,-0.82
2019-01-15T01:26:58.517Z,-0.82
2019-01-15T01:27:58.507Z,-0.85
2019-01-15T01:28:58.477Z,-0.8
2019-01-15T01:29:58.461Z,-0.84
2019-01-15T01:30:58.239Z,-0.82
2019-01-15T01:31:58.427Z,-0.82
2019-01-15T01:32:58.401Z,-0.82
2019-01-15T01:33:58.374Z,-0.85
2019-01-15T01:34:58.359Z,-0.82
2019-01-15T01:35:58.343Z,-0.82
2019-01-15T01:36:58.314Z,-0.82
2019-01-15T01:37:58.053Z,-0.74
2019-01-15T01:38:58.031Z,-0.84
2019-01-15T01:39:58.259Z,-0.79
2019-01-15T01:40:58.233Z,-0.72
2019-01-15T01:41:57.974Z,-0.66
2019-01-15T01:42:57.952Z,-0.74
2019-01-15T01:43:58.175Z,-0.7
2019-01-15T01:44:58.155Z,-0.77
2019-01-15T01:45:58.139Z,-0.66
2019-01-15T01:46:58.122Z,-0.72
2019-01-15T01:47:57.847Z,-0.67
2019-01-15T01:48:58.079Z,-0.66
2019-01-15T01:49:58.059Z,-0.64
2019-01-15T01:50:57.797Z,-0.64
2019-01-15T01:51:57.771Z,-0.72
2019-01-15T01:52:57.996Z,-0.73
2019-01-15T01:53:57.991Z,-0.66
2019-01-15T01:54:57.960Z,-0.7
2019-01-15T01:55:57.942Z,-0.64
2019-01-15T01:56:57.670Z,-0.7
2019-01-15T01:57:57.902Z,-0.72
2019-01-15T01:58:57.885Z,-0.66
2019-01-15T01:59:57.861Z,-0.7
2019-01-15T02:00:57.849Z,-0.64
2019-01-15T02:01:57.825Z,-0.66
2019-01-15T02:02:57.798Z,-0.69
2019-01-15T02:03:57.536Z,-0.67
2019-01-15T02:04:57.759Z,-0.67
2019-01-15T02:05:57.744Z,-0.7
2019-01-15T02:06:57.727Z,-0.67
2019-01-15T02:07:57.457Z,-0.69
2019-01-15T02:08:57.683Z,-0.59
2019-01-15T02:09:57.663Z,-0.69
2019-01-15T02:10:57.643Z,-0.72
2019-01-15T02:11:57.623Z,-0.69
2019-01-15T02:12:57.600Z,-0.7
2019-01-15T02:13:57.336Z,-0.64
2019-01-15T02:14:57.317Z,-0.66
2019-01-15T02:15:57.547Z,-0.64
2019-01-15T02:16:57.283Z,-0.67
2019-01-15T02:17:57.506Z,-0.58
2019-01-15T02:18:57.487Z,-0.62
2019-01-15T02:19:57.464Z,-0.69
2019-01-15T02:20:57.444Z,-0.56
2019-01-15T02:21:57.472Z,-0.69
2019-01-15T02:22:57.408Z,-0.62
2019-01-15T02:23:57.385Z,-0.62
2019-01-15T02:24:57.365Z,-0.59
2019-01-15T02:25:57.345Z,-0.72
2019-01-15T02:26:57.332Z,-0.66
2019-01-15T02:27:57.309Z,-0.55
2019-01-15T02:28:57.037Z,-0.55
2019-01-15T02:29:57.268Z,-0.56
2019-01-15T02:30:57.243Z,-0.61
2019-01-15T02:31:57.225Z,-0.55
2019-01-15T02:32:56.954Z,-0.49
2019-01-15T02:33:57.193Z,-0.59
2019-01-15T02:34:56.920Z,-0.52
2019-01-15T02:35:57.157Z,-0.58
2019-01-15T02:36:57.135Z,-0.64
2019-01-15T02:37:57.114Z,-0.52
2019-01-15T02:38:57.089Z,-0.59
2019-01-15T02:39:57.067Z,-0.59
2019-01-15T02:40:57.074Z,-0.54
2019-01-15T02:41:57.046Z,-0.58
2019-01-15T02:42:57.011Z,-0.52
2019-01-15T02:43:56.994Z,-0.55
2019-01-15T02:44:56.970Z,-0.49
2019-01-15T02:45:56.699Z,-0.52
2019-01-15T02:46:56.926Z,-0.51
2019-01-15T02:47:56.673Z,-0.51
2019-01-15T02:48:56.897Z,-0.37
2019-01-15T02:49:56.873Z,-0.54
2019-01-15T02:50:56.860Z,-0.49
2019-01-15T02:51:56.836Z,-0.51
2019-01-15T02:52:56.572Z,-0.38
2019-01-15T02:53:56.798Z,-0.49
2019-01-15T02:54:56.768Z,-0.49
2019-01-15T02:55:56.502Z,-0.4
2019-01-15T02:56:56.729Z,-0.54
2019-01-15T02:57:56.711Z,-0.37
2019-01-15T02:58:56.695Z,-0.49
2019-01-15T02:59:56.686Z,-0.54
2019-01-15T03:00:56.659Z,-0.55
2019-01-15T03:01:56.635Z,-0.55
2019-01-15T03:02:56.639Z,-0.51
2019-01-15T03:03:56.646Z,-0.43
2019-01-15T03:04:56.327Z,-0.4
2019-01-15T03:05:56.559Z,-0.4
2019-01-15T03:06:56.536Z,-0.43
2019-01-15T03:07:56.522Z,-0.43
2019-01-15T03:08:56.495Z,-0.37
2019-01-15T03:09:56.475Z,-0.36
2019-01-15T03:10:56.459Z,-0.37
2019-01-15T03:11:56.454Z,-0.38
2019-01-15T03:13:00.627Z,-0.49
2019-01-15T03:13:56.157Z,-0.43
2019-01-15T03:14:56.380Z,-0.36
2019-01-15T03:15:56.362Z,-0.4
2019-01-15T03:16:56.350Z,-0.4
2019-01-15T03:17:56.320Z,-0.38
2019-01-15T03:18:56.299Z,-0.41
2019-01-15T03:19:56.028Z,-0.38
2019-01-15T03:20:56.268Z,-0.28
2019-01-15T03:21:56.244Z,-0.34
2019-01-15T03:22:56.231Z,-0.38
2019-01-15T03:23:56.197Z,-0.3
2019-01-15T03:24:56.185Z,-0.31
2019-01-15T03:25:55.914Z,-0.38
2019-01-15T03:26:56.149Z,-0.37
2019-01-15T03:27:55.879Z,-0.37
2019-01-15T03:28:56.101Z,-0.31
2019-01-15T03:29:56.080Z,-0.3
2019-01-15T03:30:56.068Z,-0.38
2019-01-15T03:31:56.063Z,-0.37
2019-01-15T03:32:56.072Z,-0.43
2019-01-15T03:33:56.102Z,-0.31
2019-01-15T03:34:55.984Z,-0.31
2019-01-15T03:35:55.969Z,-0.31
2019-01-15T03:36:55.961Z,-0.34
2019-01-15T03:37:55.925Z,-0.41
2019-01-15T03:38:55.909Z,-0.37
2019-01-15T03:39:55.884Z,-0.38
2019-01-15T03:40:55.876Z,-0.46
2019-01-15T03:41:55.850Z,-0.37
2019-01-15T03:43:03.151Z,-0.45
2019-01-15T03:43:55.817Z,-0.34
2019-01-15T03:44:55.539Z,-0.46
2019-01-15T03:45:55.526Z,-0.38
2019-01-15T03:46:55.499Z,-0.37
2019-01-15T03:47:55.741Z,-0.41
2019-01-15T03:48:55.712Z,-0.37
2019-01-15T03:49:55.197Z,-0.37
2019-01-15T03:50:55.680Z,-0.4
2019-01-15T03:51:55.657Z,-0.34
2019-01-15T03:52:55.391Z,-0.33
2019-01-15T03:53:55.619Z,-0.36
2019-01-15T03:54:55.602Z,-0.36
2019-01-15T03:55:55.575Z,-0.27
2019-01-15T03:56:55.552Z,-0.27
2019-01-15T03:57:55.543Z,-0.38
2019-01-15T03:58:55.516Z,-0.34
2019-01-15T03:59:55.498Z,-0.25
2019-01-15T04:00:55.490Z,-0.3
2019-01-15T04:01:55.461Z,-0.27
2019-01-15T04:02:55.448Z,-0.36
2019-01-15T04:03:55.419Z,-0.36
2019-01-15T04:04:55.395Z,-0.3
2019-01-15T04:05:55.129Z,-0.23
2019-01-15T04:06:55.358Z,-0.23
2019-01-15T04:07:55.337Z,-0.22
2019-01-15T04:08:55.321Z,-0.22
2019-01-15T04:09:55.300Z,-0.27
2019-01-15T04:10:55.280Z,-0.22
2019-01-15T04:11:55.274Z,-0.2
2019-01-15T04:12:55.242Z,-0.27
2019-01-15T04:13:55.230Z,-0.28
2019-01-15T04:14:55.198Z,-0.28
2019-01-15T04:15:55.197Z,-0.22
2019-01-15T04:16:54.913Z,-0.22
2019-01-15T04:17:55.152Z,-0.22
2019-01-15T04:18:55.342Z,-0.23
2019-01-15T04:19:55.103Z,-0.2
2019-01-15T04:20:55.090Z,-0.3
2019-01-15T04:21:55.070Z,-0.19
2019-01-15T04:22:55.060Z,-0.34
2019-01-15T04:23:55.021Z,-0.34
2019-01-15T04:24:55.014Z,-0.31
2019-01-15T04:25:54.981Z,-0.3
2019-01-15T04:26:54.718Z,-0.25
2019-01-15T04:27:54.698Z,-0.27
2019-01-15T04:28:54.678Z,-0.34
2019-01-15T04:29:54.911Z,-0.33
2019-01-15T04:30:54.893Z,-0.33
2019-01-15T04:31:54.618Z,-0.31
2019-01-15T04:32:54.856Z,-0.3
2019-01-15T04:33:54.863Z,-0.22
2019-01-15T04:34:54.808Z,-0.31
2019-01-15T04:35:54.796Z,-0.34
2019-01-15T04:36:54.770Z,-0.37
2019-01-15T04:37:54.767Z,-0.37
2019-01-15T04:38:54.728Z,-0.37
2019-01-15T04:39:54.461Z,-0.31
2019-01-15T04:40:54.692Z,-0.34
2019-01-15T04:41:54.452Z,-0.31
2019-01-15T04:42:54.653Z,-0.41
2019-01-15T04:43:54.631Z,-0.41
2019-01-15T04:44:54.609Z,-0.34
2019-01-15T04:45:54.605Z,-0.4
2019-01-15T04:46:54.320Z,-0.36
2019-01-15T04:47:54.550Z,-0.31
2019-01-15T04:48:54.296Z,-0.4
2019-01-15T04:49:54.512Z,-0.31
2019-01-15T04:50:54.242Z,-0.4
2019-01-15T04:51:54.482Z,-0.38
2019-01-15T04:52:54.458Z,-0.38
2019-01-15T04:53:54.427Z,-0.38
2019-01-15T04:54:54.422Z,-0.33
2019-01-15T04:55:54.410Z,-0.3
2019-01-15T04:56:54.375Z,-0.33
2019-01-15T04:57:54.355Z,-0.36
2019-01-15T04:58:54.090Z,-0.38
2019-01-15T04:59:54.066Z,-0.37
2019-01-15T05:00:54.293Z,-0.28
2019-01-15T05:01:54.028Z,-0.38
2019-01-15T05:02:54.256Z,-0.31
2019-01-15T05:03:54.651Z,-0.34
2019-01-15T05:04:54.225Z,-0.33
2019-01-15T05:05:54.051Z,-0.33
2019-01-15T05:06:54.179Z,-0.34
2019-01-15T05:07:54.169Z,-0.34
2019-01-15T05:08:54.146Z,-0.36
2019-01-15T05:09:54.122Z,-0.31
2019-01-15T05:10:54.103Z,-0.33
2019-01-15T05:11:54.101Z,-0.34
2019-01-15T05:12:54.077Z,-0.36
2019-01-15T05:13:53.793Z,-0.37
2019-01-15T05:14:54.028Z,-0.38
2019-01-15T05:15:54.000Z,-0.45
2019-01-15T05:16:53.735Z,-0.34
2019-01-15T05:17:53.961Z,-0.4
2019-01-15T05:18:53.944Z,-0.45
2019-01-15T05:19:53.923Z,-0.4
2019-01-15T05:20:53.420Z,-0.38
2019-01-15T05:21:53.883Z,-0.4
2019-01-15T05:22:53.881Z,-0.41
2019-01-15T05:23:53.852Z,-0.37
2019-01-15T05:24:53.827Z,-0.41
2019-01-15T05:25:53.811Z,-0.4
2019-01-15T05:26:53.789Z,-0.41
2019-01-15T05:27:53.765Z,-0.34
2019-01-15T05:28:53.750Z,-0.37
2019-01-15T05:29:53.725Z,-0.43
2019-01-15T05:30:53.466Z,-0.37
2019-01-15T05:31:53.701Z,-0.36
2019-01-15T05:32:53.684Z,-0.37
2019-01-15T05:33:53.400Z,-0.38
2019-01-15T05:34:53.629Z,-0.3
2019-01-15T05:35:53.360Z,-0.36
2019-01-15T05:36:53.608Z,-0.34
2019-01-15T05:37:53.584Z,-0.34
2019-01-15T05:38:53.308Z,-0.34
2019-01-15T05:39:53.562Z,-0.3
2019-01-15T05:40:53.516Z,-0.33
2019-01-15T05:41:53.494Z,-0.28
2019-01-15T05:42:53.567Z,-0.34
2019-01-15T05:43:53.454Z,-0.31
2019-01-15T05:44:53.438Z,-0.28
2019-01-15T05:45:53.416Z,-0.36
2019-01-15T05:46:53.403Z,-0.33
2019-01-15T05:47:53.376Z,-0.36
2019-01-15T05:48:53.359Z,-0.43
2019-01-15T05:49:53.331Z,-0.4
2019-01-15T05:50:53.319Z,-0.4
2019-01-15T05:51:53.293Z,-0.31
2019-01-15T05:52:53.282Z,-0.37
2019-01-15T05:53:53.257Z,-0.38
2019-01-15T05:54:53.241Z,-0.37
2019-01-15T05:55:53.223Z,-0.28
2019-01-15T05:56:53.203Z,-0.33
2019-01-15T05:57:52.928Z,-0.38
2019-01-15T05:58:53.158Z,-0.43
2019-01-15T05:59:52.885Z,-0.41
2019-01-15T06:00:53.113Z,-0.38
2019-01-15T06:01:53.101Z,-0.28
2019-01-15T06:02:53.457Z,-0.4
2019-01-15T06:03:53.056Z,-0.45
2019-01-15T06:04:53.040Z,-0.34
2019-01-15T06:05:53.069Z,-0.41
2019-01-15T06:06:52.748Z,-0.41
2019-01-15T06:07:52.989Z,-0.38
2019-01-15T06:08:52.966Z,-0.43
2019-01-15T06:09:52.691Z,-0.34
2019-01-15T06:10:52.923Z,-0.38
2019-01-15T06:11:52.905Z,-0.37
2019-01-15T06:12:52.885Z,-0.37
2019-01-15T06:13:52.864Z,-0.41
2019-01-15T06:14:52.842Z,-0.49
2019-01-15T06:15:52.571Z,-0.38
2019-01-15T06:16:52.809Z,-0.46
2019-01-15T06:17:52.794Z,-0.38
2019-01-15T06:18:52.760Z,-0.34
2019-01-15T06:19:52.742Z,-0.41
2019-01-15T06:20:52.730Z,-0.4
2019-01-15T06:21:52.713Z,-0.36
2019-01-15T06:22:52.688Z,-0.38
2019-01-15T06:23:52.671Z,-0.45
2019-01-15T06:24:52.651Z,-0.38
2019-01-15T06:25:52.625Z,-0.43
2019-01-15T06:26:52.609Z,-0.37
2019-01-15T06:27:52.586Z,-0.4
2019-01-15T06:28:52.320Z,-0.37
2019-01-15T06:29:52.550Z,-0.45
2019-01-15T06:30:52.537Z,-0.41
2019-01-15T06:31:52.264Z,-0.37
2019-01-15T06:32:52.251Z,-0.48
2019-01-15T06:33:52.225Z,-0.54
2019-01-15T06:34:52.457Z,-0.45
2019-01-15T06:35:52.435Z,-0.54
2019-01-15T06:36:52.413Z,-0.48
2019-01-15T06:37:53.949Z,-0.46
2019-01-15T06:38:52.130Z,-0.51
2019-01-15T06:39:52.350Z,-0.51
2019-01-15T06:40:52.087Z,-0.51
2019-01-15T06:41:52.324Z,-0.41
2019-01-15T06:42:52.293Z,-0.48
2019-01-15T06:43:54.979Z,-0.49
2019-01-15T06:44:52.251Z,-0.51
2019-01-15T06:45:52.236Z,-0.49
2019-01-15T06:46:52.271Z,-0.51
2019-01-15T06:47:52.199Z,-0.55
2019-01-15T06:48:52.229Z,-0.54
2019-01-15T06:49:52.166Z,-0.59
2019-01-15T06:50:51.894Z,-0.59
2019-01-15T06:51:51.866Z,-0.59
2019-01-15T06:52:52.098Z,-0.61
2019-01-15T06:53:52.087Z,-0.59
2019-01-15T06:54:52.064Z,-0.59
2019-01-15T06:55:52.041Z,-0.56
2019-01-15T06:56:52.029Z,-0.52
2019-01-15T06:57:51.998Z,-0.54
2019-01-15T06:58:51.737Z,-0.62
2019-01-15T06:59:51.968Z,-0.56
2019-01-15T07:00:51.943Z,-0.56
2019-01-15T07:01:51.928Z,-0.64
2019-01-15T07:02:51.662Z,-0.56
2019-01-15T07:03:51.388Z,-0.64
2019-01-15T07:04:51.878Z,-0.7
2019-01-15T07:05:51.842Z,-0.59
2019-01-15T07:06:51.875Z,-0.62
2019-01-15T07:07:51.556Z,-0.64
2019-01-15T07:08:51.788Z,-0.7
2019-01-15T07:09:51.768Z,-0.62
2019-01-15T07:10:51.747Z,-0.61
2019-01-15T07:11:51.729Z,-0.73
2019-01-15T07:12:51.706Z,-0.64
2019-01-15T07:13:59.420Z,-0.61
2019-01-15T07:14:51.420Z,-0.61
2019-01-15T07:15:51.642Z,-0.64
2019-01-15T07:16:51.639Z,-0.59
2019-01-15T07:17:51.356Z,-0.61
2019-01-15T07:18:51.587Z,-0.59
2019-01-15T07:19:51.574Z,-0.59
2019-01-15T07:20:51.560Z,-0.62
2019-01-15T07:21:51.526Z,-0.62
2019-01-15T07:22:51.519Z,-0.55
2019-01-15T07:23:51.492Z,-0.58
2019-01-15T07:24:51.472Z,-0.55
2019-01-15T07:25:51.452Z,-0.54
2019-01-15T07:26:51.428Z,-0.48
2019-01-15T07:27:51.413Z,-0.48
2019-01-15T07:28:51.145Z,-0.49
2019-01-15T07:29:51.374Z,-0.49
2019-01-15T07:30:51.351Z,-0.41
2019-01-15T07:31:51.327Z,-0.54
2019-01-15T07:32:51.313Z,-0.45
2019-01-15T07:33:51.301Z,-0.49
2019-01-15T07:34:51.277Z,-0.52
2019-01-15T07:35:51.252Z,-0.36
2019-01-15T07:36:51.236Z,-0.34
2019-01-15T07:37:51.215Z,-0.45
2019-01-15T07:38:51.194Z,-0.41
2019-01-15T07:39:51.169Z,-0.41
2019-01-15T07:40:51.155Z,-0.36
2019-01-15T07:41:51.131Z,-0.36
2019-01-15T07:42:51.120Z,-0.33
2019-01-15T07:43:51.103Z,-0.28
2019-01-15T07:44:51.074Z,-0.3
2019-01-15T07:45:50.808Z,-0.2
2019-01-15T07:46:51.037Z,-0.34
2019-01-15T07:47:51.015Z,-0.22
2019-01-15T07:48:50.998Z,-0.2
2019-01-15T07:49:50.981Z,-0.23
2019-01-15T07:50:50.957Z,-0.15
2019-01-15T07:51:50.944Z,-0.22
2019-01-15T07:52:50.678Z,-0.22
2019-01-15T07:53:50.913Z,-0.12
2019-01-15T07:54:50.882Z,-0.09
2019-01-15T07:55:50.860Z,-0.1
2019-01-15T07:56:50.842Z,-0.15
2019-01-15T07:57:50.825Z,-0.07
2019-01-15T07:58:50.814Z,-0.12
2019-01-15T07:59:50.784Z,-0.1
2019-01-15T08:00:50.764Z,-0.07
2019-01-15T08:01:50.503Z,-0.05
2019-01-15T08:02:50.733Z,0.01
2019-01-15T08:03:50.710Z,0.05
2019-01-15T08:04:52.183Z,0.03
2019-01-15T08:05:50.681Z,0.13
2019-01-15T08:06:50.405Z,0.1
2019-01-15T08:07:50.640Z,0.1
2019-01-15T08:08:50.616Z,0.13
2019-01-15T08:09:50.354Z,0.13
2019-01-15T08:10:56.878Z,0.1
2019-01-15T08:11:50.554Z,0.1
2019-01-15T08:12:50.586Z,0.17
2019-01-15T08:13:50.516Z,0.17
2019-01-15T08:14:50.497Z,0.2
2019-01-15T08:15:50.485Z,0.19
2019-01-15T08:16:50.609Z,0.17
2019-01-15T08:17:50.435Z,0.21
2019-01-15T08:18:50.416Z,0.24
2019-01-15T08:19:50.403Z,0.35
2019-01-15T08:20:50.388Z,0.41
2019-01-15T08:21:50.390Z,0.39
2019-01-15T08:22:50.345Z,0.38
2019-01-15T08:23:50.328Z,0.39
2019-01-15T08:24:50.309Z,0.44
2019-01-15T08:25:50.289Z,0.37
2019-01-15T08:26:50.265Z,0.44
2019-01-15T08:27:50.250Z,0.45
2019-01-15T08:28:50.224Z,0.53
2019-01-15T08:29:50.211Z,0.56
2019-01-15T08:30:50.192Z,0.56
2019-01-15T08:31:50.172Z,0.57
2019-01-15T08:32:49.900Z,0.63
2019-01-15T08:33:49.882Z,0.69
2019-01-15T08:34:49.619Z,0.67
2019-01-15T08:35:49.852Z,0.67
2019-01-15T08:36:50.078Z,0.76
2019-01-15T08:37:50.055Z,0.74
2019-01-15T08:38:50.037Z,0.76
2019-01-15T08:39:50.019Z,0.84
2019-01-15T08:40:49.998Z,0.82
2019-01-15T08:41:49.982Z,0.93
2019-01-15T08:42:49.970Z,0.84
2019-01-15T08:43:49.939Z,0.94
2019-01-15T08:44:49.925Z,0.84
2019-01-15T08:45:49.908Z,0.78
2019-01-15T08:46:49.690Z,0.93
2019-01-15T08:47:50.247Z,0.93
2019-01-15T08:48:49.846Z,0.85
2019-01-15T08:49:49.836Z,0.96
2019-01-15T08:50:49.819Z,1.07
2019-01-15T08:51:49.545Z,1.1
2019-01-15T08:52:49.774Z,0.99
2019-01-15T08:53:49.756Z,1.02
2019-01-15T08:54:49.739Z,0.97
2019-01-15T08:55:49.475Z,1.03
2019-01-15T08:56:49.698Z,1.04
2019-01-15T08:57:49.683Z,1.04
2019-01-15T08:58:49.662Z,1.04
2019-01-15T08:59:49.642Z,1.12
2019-01-15T09:00:49.385Z,1.14
2019-01-15T09:01:49.610Z,1.07
2019-01-15T09:02:49.599Z,1.15
2019-01-15T09:03:49.574Z,1.17
2019-01-15T09:04:49.300Z,1.15
2019-01-15T09:05:49.531Z,1.17
2019-01-15T09:06:49.520Z,1.21
2019-01-15T09:07:49.257Z,1.22
2019-01-15T09:08:49.479Z,1.15
2019-01-15T09:09:49.482Z,1.22
2019-01-15T09:10:49.443Z,1.24
2019-01-15T09:11:49.423Z,1.33
2019-01-15T09:12:49.411Z,1.29
2019-01-15T09:13:49.389Z,1.3
2019-01-15T09:14:49.370Z,1.42
2019-01-15T09:15:49.356Z,1.42
2019-01-15T09:16:49.359Z,1.46
2019-01-15T09:17:49.063Z,1.47
2019-01-15T09:18:49.350Z,1.4
2019-01-15T09:19:49.032Z,1.46
2019-01-15T09:20:49.261Z,1.53
2019-01-15T09:21:49.282Z,1.46
2019-01-15T09:22:48.981Z,1.44
2019-01-15T09:23:49.204Z,1.42
2019-01-15T09:24:49.259Z,1.51
2019-01-15T09:25:49.169Z,1.46
2019-01-15T09:26:49.151Z,1.56
2019-01-15T09:27:49.240Z,1.53
2019-01-15T09:28:49.111Z,1.56
2019-01-15T09:29:49.091Z,1.56
2019-01-15T09:30:49.077Z,1.58
2019-01-15T09:31:49.059Z,1.57
2019-01-15T09:32:49.039Z,1.56
2019-01-15T09:33:49.028Z,1.57
2019-01-15T09:34:49.002Z,1.47
2019-01-15T09:35:49.511Z,1.6
2019-01-15T09:36:48.969Z,1.57
2019-01-15T09:37:48.955Z,1.6
2019-01-15T09:38:48.933Z,1.64
2019-01-15T09:39:48.912Z,1.58
2019-01-15T09:40:48.895Z,1.66
2019-01-15T09:41:48.632Z,1.76
2019-01-15T09:42:48.617Z,1.75
2019-01-15T09:43:48.845Z,1.72
2019-01-15T09:44:48.825Z,1.89
2019-01-15T09:45:48.560Z,1.9
2019-01-15T09:46:48.539Z,1.98
2019-01-15T09:47:48.773Z,2.08
2019-01-15T09:48:48.749Z,2.06
2019-01-15T09:49:48.739Z,2.11
2019-01-15T09:50:48.715Z,2.15
2019-01-15T09:51:48.703Z,2.31
2019-01-15T09:52:48.679Z,2.31
2019-01-15T09:53:48.660Z,2.29
2019-01-15T09:54:48.408Z,2.38
2019-01-15T09:55:48.628Z,2.31
2019-01-15T09:56:48.618Z,2.36
2019-01-15T09:57:48.590Z,2.31
2019-01-15T09:58:48.577Z,2.41
2019-01-15T09:59:48.559Z,2.31
2019-01-15T10:00:48.046Z,2.3
2019-01-15T10:01:48.545Z,2.31
2019-01-15T10:02:48.523Z,2.33
2019-01-15T10:03:48.493Z,2.34
2019-01-15T10:04:48.596Z,2.34
2019-01-15T10:05:48.456Z,2.34
2019-01-15T10:06:48.186Z,2.31
2019-01-15T10:07:48.426Z,2.48
2019-01-15T10:08:48.412Z,2.45
2019-01-15T10:09:48.389Z,2.48
2019-01-15T10:10:48.365Z,2.45
2019-01-15T10:11:48.103Z,2.47
2019-01-15T10:12:48.091Z,2.38
2019-01-15T10:13:48.315Z,2.33
2019-01-15T10:14:48.303Z,2.29
2019-01-15T10:15:48.279Z,2.26
2019-01-15T10:16:48.266Z,2.16
2019-01-15T10:17:48.251Z,2.24
2019-01-15T10:18:48.232Z,2.24
2019-01-15T10:19:47.972Z,2.29
2019-01-15T10:20:48.198Z,2.36
2019-01-15T10:21:48.178Z,2.36
2019-01-15T10:22:48.162Z,2.33
2019-01-15T10:23:48.138Z,2.4
2019-01-15T10:24:48.122Z,2.47
2019-01-15T10:25:47.858Z,2.33
2019-01-15T10:26:48.119Z,2.38
2019-01-15T10:27:47.821Z,2.41
2019-01-15T10:28:48.057Z,2.34
2019-01-15T10:29:47.797Z,2.29
2019-01-15T10:30:48.019Z,2.33
2019-01-15T10:31:48.007Z,2.33
2019-01-15T10:32:47.982Z,2.33
2019-01-15T10:33:47.732Z,2.31
2019-01-15T10:34:47.703Z,2.34
2019-01-15T10:35:47.932Z,2.18
2019-01-15T10:36:47.930Z,2.2
2019-01-15T10:37:47.908Z,2.16
2019-01-15T10:38:47.893Z,2.2
2019-01-15T10:39:47.868Z,2.18
2019-01-15T10:40:47.846Z,2.22
2019-01-15T10:41:47.582Z,2.18
2019-01-15T10:42:47.565Z,2.16
2019-01-15T10:43:47.793Z,2.22
2019-01-15T10:44:53.487Z,2.31
2019-01-15T10:45:47.512Z,2.29
2019-01-15T10:46:47.747Z,2.36
2019-01-15T10:47:47.481Z,2.36
2019-01-15T10:48:47.712Z,2.4
2019-01-15T10:49:47.698Z,2.33
2019-01-15T10:50:47.672Z,2.4
2019-01-15T10:51:47.650Z,2.38
2019-01-15T10:52:47.641Z,2.34
2019-01-15T10:53:47.618Z,2.38
2019-01-15T10:54:47.608Z,2.29
2019-01-15T10:55:47.605Z,2.38
2019-01-15T10:56:47.070Z,2.3
2019-01-15T10:57:47.555Z,2.26
2019-01-15T10:58:47.529Z,2.22
2019-01-15T10:59:47.514Z,2.15
2019-01-15T11:00:47.500Z,2.12
2019-01-15T11:01:47.484Z,2.09
2019-01-15T11:02:47.463Z,2.11
2019-01-15T11:03:47.452Z,2.15
2019-01-15T11:04:47.443Z,2.2
2019-01-15T11:05:47.417Z,2.23
2019-01-15T11:06:47.392Z,2.22
2019-01-15T11:07:47.378Z,2.18
2019-01-15T11:08:47.115Z,2.22
2019-01-15T11:09:47.343Z,2.13
2019-01-15T11:10:47.328Z,2.15
2019-01-15T11:11:47.305Z,2.24
2019-01-15T11:12:47.302Z,2.15
2019-01-15T11:13:47.290Z,2.16
2019-01-15T11:14:47.262Z,2.2
2019-01-15T11:15:48.316Z,2.15
2019-01-15T11:16:47.226Z,2.2
2019-01-15T11:17:47.203Z,2.26
2019-01-15T11:18:46.944Z,2.13
2019-01-15T11:19:47.180Z,2.2
2019-01-15T11:20:47.149Z,2.33
2019-01-15T11:21:47.133Z,2.27
2019-01-15T11:22:47.172Z,2.26
2019-01-15T11:23:47.105Z,2.26
2019-01-15T11:24:47.077Z,2.16
2019-01-15T11:25:47.068Z,2.22
2019-01-15T11:26:47.045Z,2.13
2019-01-15T11:27:47.030Z,2.23
2019-01-15T11:28:47.012Z,2.11
2019-01-15T11:29:47.001Z,2.06
2019-01-15T11:30:46.978Z,2.12
2019-01-15T11:31:46.963Z,2.23
2019-01-15T11:32:46.939Z,2.13
2019-01-15T11:33:46.930Z,2.23
2019-01-15T11:34:46.907Z,2.23
2019-01-15T11:35:46.890Z,2.13
2019-01-15T11:36:46.873Z,2.2
2019-01-15T11:37:46.854Z,2.15
2019-01-15T11:38:46.837Z,2.09
2019-01-15T11:39:46.573Z,2.15
2019-01-15T11:40:46.808Z,2.13
2019-01-15T11:41:46.783Z,2.08
2019-01-15T11:42:46.765Z,2.04
2019-01-15T11:43:46.750Z,2.08
2019-01-15T11:44:46.485Z,2.16
2019-01-15T11:45:46.708Z,2.16
2019-01-15T11:46:46.695Z,2.12
2019-01-15T11:47:46.677Z,2.12
2019-01-15T11:48:46.413Z,2.18
2019-01-15T11:49:46.650Z,2.22
2019-01-15T11:50:46.375Z,2.15
2019-01-15T11:51:46.605Z,2.3
2019-01-15T11:52:46.595Z,2.24
2019-01-15T11:53:46.572Z,2.31
2019-01-15T11:54:46.556Z,2.38
2019-01-15T11:55:46.531Z,2.3
2019-01-15T11:56:46.531Z,2.33
2019-01-15T11:57:46.496Z,2.3
2019-01-15T11:58:46.484Z,2.33
2019-01-15T11:59:46.468Z,2.29
2019-01-15T12:00:46.456Z,2.33
2019-01-15T12:01:46.438Z,2.26
2019-01-15T12:02:46.408Z,2.27
2019-01-15T12:03:46.401Z,2.27
2019-01-15T12:04:46.381Z,2.23
2019-01-15T12:05:46.364Z,2.2
2019-01-15T12:06:46.341Z,2.23
2019-01-15T12:07:46.326Z,2.23
2019-01-15T12:08:46.065Z,2.16
2019-01-15T12:09:46.287Z,2.13
2019-01-15T12:10:46.272Z,2.18
2019-01-15T12:11:46.019Z,2.22
2019-01-15T12:12:46.283Z,2.22
2019-01-15T12:13:46.221Z,2.18
2019-01-15T12:14:46.213Z,2.23
2019-01-15T12:15:46.189Z,2.26
2019-01-15T12:16:46.174Z,2.2
2019-01-15T12:17:46.150Z,2.26
2019-01-15T12:18:46.133Z,2.29
2019-01-15T12:19:46.114Z,2.29
2019-01-15T12:20:46.103Z,2.33
2019-01-15T12:21:46.083Z,2.34
2019-01-15T12:22:46.060Z,2.4
2019-01-15T12:23:46.052Z,2.3
2019-01-15T12:24:46.030Z,2.33
2019-01-15T12:25:46.016Z,2.16
2019-01-15T12:26:45.991Z,2.22
2019-01-15T12:27:45.978Z,2.23
2019-01-15T12:28:45.959Z,2.16
2019-01-15T12:29:45.941Z,2.15
2019-01-15T12:30:45.924Z,2.18
2019-01-15T12:31:45.903Z,2.22
2019-01-15T12:32:45.889Z,2.13
2019-01-15T12:33:45.870Z,2.2
2019-01-15T12:34:45.599Z,2.16
2019-01-15T12:35:45.830Z,2.13
2019-01-15T12:36:45.815Z,2.13
2019-01-15T12:37:45.802Z,2.12
2019-01-15T12:38:45.781Z,2.08
2019-01-15T12:39:45.768Z,2.09
2019-01-15T12:40:45.495Z,2.11
2019-01-15T12:41:45.726Z,1.94
2019-01-15T12:42:45.708Z,2.01
2019-01-15T12:43:45.692Z,1.93
2019-01-15T12:44:45.686Z,1.93
2019-01-15T12:45:45.661Z,1.97
2019-01-15T12:46:45.693Z,1.84
2019-01-15T12:47:45.623Z,2.02
2019-01-15T12:48:45.606Z,1.98
2019-01-15T12:49:45.591Z,1.94
2019-01-15T12:50:45.571Z,1.97
2019-01-15T12:51:45.307Z,2.09
2019-01-15T12:52:45.542Z,2.04
2019-01-15T12:53:45.514Z,2.06
2019-01-15T12:54:45.538Z,2.04
2019-01-15T12:55:45.475Z,1.97
2019-01-15T12:56:45.462Z,1.97
2019-01-15T12:57:45.448Z,1.93
2019-01-15T12:58:45.181Z,2.01
2019-01-15T12:59:45.414Z,1.84
2019-01-15T13:00:45.394Z,1.83
2019-01-15T13:01:45.372Z,1.86
2019-01-15T13:02:45.109Z,1.87
2019-01-15T13:03:45.346Z,1.87
2019-01-15T13:04:45.876Z,1.76